Time;durP1;ratioP1;P1;durP2;ratioP2;P2;SDS_P1;SDS_P2;PMS_P1;PMS_P2;Temp;Humidity;BMP_temperature;BMP_pressure;BME280_temperature;BME280_humidity;BME280_pressure;Samples;Min_cycle;Max_cycle;Signal;HPM_P1;HPM_P2
2022/12/07 00:01:46;;;;;;;15.95;10.48;;;;;;;;;;5025596;28;20026;-74
2022/12/07 00:04:13;;;;;;;12.05;8.65;;;;;;;;;;5019137;28;20128;-75
2022/12/07 00:06:43;;;;;;;17.58;9.65;;;;;;;;;;5021921;28;20030;-75
2022/12/07 00:09:14;;;;;;;15.45;10.45;;;;;;;;;;5034182;28;20505;-75
2022/12/07 00:11:40;;;;;;;15.88;9.60;;;;;;;;;;5020345;28;20068;-75
2022/12/07 00:14:07;;;;;;;16.23;9.82;;;;;;;;;;5008266;28;20465;-74
2022/12/07 00:16:34;;;;;;;17.45;12.60;;;;;;;;;;5024652;28;20042;-75
2022/12/07 00:19:00;;;;;;;20.95;11.85;;;;;;;;;;5001551;28;20059;-75
2022/12/07 00:21:27;;;;;;;14.43;9.98;;;;;;;;;;5026202;28;20033;-75
2022/12/07 00:23:54;;;;;;;12.18;8.70;;;;;;;;;;5010338;28;20063;-75
2022/12/07 00:26:28;;;;;;;14.13;9.50;;;;;;;;;;5028176;28;20031;-75
2022/12/07 00:28:59;;;;;;;16.45;9.57;;;;;;;;;;5024670;28;20103;-75
2022/12/07 00:31:27;;;;;;;15.25;9.50;;;;;;;;;;5023221;28;20494;-75
2022/12/07 00:33:53;;;;;;;16.13;10.48;;;;;;;;;;5017321;28;20041;-75
2022/12/07 00:36:20;;;;;;;12.05;9.93;;;;;;;;;;5025009;28;20061;-75
2022/12/07 00:38:46;;;;;;;14.55;9.45;;;;;;;;;;5031125;28;20390;-75
2022/12/07 00:41:13;;;;;;;16.55;10.93;;;;;;;;;;5027502;28;20497;-75
2022/12/07 00:43:39;;;;;;;14.15;11.30;;;;;;;;;;5005805;28;20030;-75
2022/12/07 00:46:05;;;;;;;16.90;10.82;;;;;;;;;;5028450;28;20117;-75
2022/12/07 00:48:31;;;;;;;18.30;11.55;;;;;;;;;;5030060;28;20033;-75
2022/12/07 00:50:57;;;;;;;16.80;9.50;;;;;;;;;;5022233;28;20561;-75
2022/12/07 00:53:23;;;;;;;15.30;10.63;;;;;;;;;;5024963;28;20124;-75
2022/12/07 00:55:50;;;;;;;19.70;11.10;;;;;;;;;;5006809;28;20253;-75
2022/12/07 00:58:16;;;;;;;19.52;11.82;;;;;;;;;;5002804;28;20076;-75
2022/12/07 01:00:43;;;;;;;19.25;11.02;;;;;;;;;;5021005;28;20092;-75
2022/12/07 01:03:10;;;;;;;18.55;11.20;;;;;;;;;;5002415;28;20105;-75
2022/12/07 01:05:37;;;;;;;14.93;10.07;;;;;;;;;;4997718;28;20041;-75
2022/12/07 01:08:03;;;;;;;16.88;11.02;;;;;;;;;;5005010;28;20033;-75
2022/12/07 01:10:30;;;;;;;16.17;10.18;;;;;;;;;;5000984;28;20109;-75
2022/12/07 01:12:56;;;;;;;18.63;10.98;;;;;;;;;;4999699;28;20026;-75
2022/12/07 01:15:23;;;;;;;17.15;10.35;;;;;;;;;;5008397;28;20112;-75
2022/12/07 01:17:49;;;;;;;17.95;10.68;;;;;;;;;;5001835;28;20081;-75
2022/12/07 01:20:15;;;;;;;17.50;10.93;;;;;;;;;;5005268;28;20028;-76
2022/12/07 01:22:42;;;;;;;17.77;10.88;;;;;;;;;;5014703;28;20069;-75
2022/12/07 01:25:09;;;;;;;18.40;10.93;;;;;;;;;;5007650;28;20053;-75
2022/12/07 01:27:35;;;;;;;16.70;9.60;;;;;;;;;;5005829;28;20034;-75
2022/12/07 01:30:01;;;;;;;13.65;9.15;;;;;;;;;;5005191;28;20036;-75
2022/12/07 01:32:28;;;;;;;19.50;11.07;;;;;;;;;;5007576;28;20718;-75
2022/12/07 01:34:54;;;;;;;17.23;11.25;;;;;;;;;;5003349;28;20022;-75
2022/12/07 01:37:20;;;;;;;16.63;11.05;;;;;;;;;;5012815;28;20125;-75
2022/12/07 01:39:49;;;;;;;19.20;12.40;;;;;;;;;;5003104;28;20034;-75
2022/12/07 01:42:15;;;;;;;16.50;10.35;;;;;;;;;;5011498;28;20026;-75
2022/12/07 01:44:59;;;;;;;16.15;9.30;;;;;;;;;;4998814;28;20562;-75
2022/12/07 01:47:26;;;;;;;14.48;9.07;;;;;;;;;;4997122;28;20034;-75
2022/12/07 01:49:52;;;;;;;14.55;9.68;;;;;;;;;;4991357;28;20049;-75
2022/12/07 01:52:23;;;;;;;13.18;8.30;;;;;;;;;;5003402;28;20029;-75
2022/12/07 01:54:51;;;;;;;15.63;8.25;;;;;;;;;;5008543;28;20025;-75
2022/12/07 01:57:18;;;;;;;14.23;8.77;;;;;;;;;;5012409;28;20053;-75
2022/12/07 01:59:46;;;;;;;10.77;7.95;;;;;;;;;;5032117;28;20045;-75
2022/12/07 02:02:35;;;;;;;18.70;9.20;;;;;;;;;;5017912;28;20026;-75
2022/12/07 02:05:03;;;;;;;18.38;9.05;;;;;;;;;;5013494;28;20041;-75
2022/12/07 02:07:29;;;;;;;11.50;8.15;;;;;;;;;;5025714;28;20049;-75
2022/12/07 02:09:56;;;;;;;13.23;8.98;;;;;;;;;;5018827;28;20041;-75
2022/12/07 02:12:23;;;;;;;14.85;10.27;;;;;;;;;;5027519;28;20100;-75
2022/12/07 02:14:50;;;;;;;13.48;9.15;;;;;;;;;;5020997;28;20021;-75
2022/12/07 02:17:21;;;;;;;14.20;8.35;;;;;;;;;;5026256;28;20035;-75
2022/12/07 02:19:56;;;;;;;13.27;8.82;;;;;;;;;;5030904;28;20577;-75
2022/12/07 02:22:37;;;;;;;13.07;7.90;;;;;;;;;;5006028;28;20458;-75
2022/12/07 02:25:21;;;;;;;11.77;8.07;;;;;;;;;;5027453;28;20040;-75
2022/12/07 02:27:56;;;;;;;12.93;8.80;;;;;;;;;;5031291;28;20033;-75
2022/12/07 02:30:24;;;;;;;11.63;8.50;;;;;;;;;;5021732;28;20036;-75
2022/12/07 02:33:23;;;;;;;11.00;7.72;;;;;;;;;;5007906;28;20037;-75
2022/12/07 02:35:58;;;;;;;9.25;7.00;;;;;;;;;;5000021;28;20053;-74
2022/12/07 02:38:31;;;;;;;16.67;7.90;;;;;;;;;;5024509;28;20421;-75
2022/12/07 02:41:16;;;;;;;12.52;8.23;;;;;;;;;;5008700;28;20061;-75
2022/12/07 02:43:45;;;;;;;13.10;8.00;;;;;;;;;;5025245;28;20112;-75
2022/12/07 02:46:14;;;;;;;12.18;7.47;;;;;;;;;;5026857;28;20064;-75
2022/12/07 02:48:42;;;;;;;11.30;6.97;;;;;;;;;;5027799;28;20171;-75
2022/12/07 02:51:08;;;;;;;10.68;6.75;;;;;;;;;;5028329;28;20030;-75
2022/12/07 02:53:35;;;;;;;8.77;6.95;;;;;;;;;;5021975;28;20021;-75
2022/12/07 02:56:14;;;;;;;11.70;8.00;;;;;;;;;;5012187;28;20025;-75
2022/12/07 02:58:59;;;;;;;12.75;7.50;;;;;;;;;;5028480;28;20085;-75
2022/12/07 03:01:25;;;;;;;11.27;7.88;;;;;;;;;;5005836;28;20095;-75
2022/12/07 03:03:59;;;;;;;11.23;7.70;;;;;;;;;;5017974;28;20528;-75
2022/12/07 03:06:32;;;;;;;11.25;8.20;;;;;;;;;;5024593;28;20029;-75
2022/12/07 03:09:17;;;;;;;13.05;8.38;;;;;;;;;;5004632;28;20369;-75
2022/12/07 03:11:49;;;;;;;12.13;8.47;;;;;;;;;;5020334;28;20767;-75
2022/12/07 03:14:27;;;;;;;14.43;7.70;;;;;;;;;;5023349;28;20022;-75
2022/12/07 03:16:58;;;;;;;14.15;8.77;;;;;;;;;;5027359;28;20077;-75
2022/12/07 03:19:24;;;;;;;12.15;8.02;;;;;;;;;;5022791;28;20087;-75
2022/12/07 03:21:55;;;;;;;11.43;8.00;;;;;;;;;;5022868;28;20439;-75
2022/12/07 03:24:22;;;;;;;13.93;7.93;;;;;;;;;;5021370;28;20108;-75
2022/12/07 03:26:51;;;;;;;15.25;7.85;;;;;;;;;;5020952;28;20025;-75
2022/12/07 03:29:20;;;;;;;12.20;8.02;;;;;;;;;;5022270;28;20018;-75
2022/12/07 03:31:49;;;;;;;12.30;7.88;;;;;;;;;;5028202;28;20044;-75
2022/12/07 03:34:17;;;;;;;13.25;8.10;;;;;;;;;;5021922;28;20025;-75
2022/12/07 03:36:46;;;;;;;11.82;7.85;;;;;;;;;;5024698;28;20021;-75
2022/12/07 03:39:31;;;;;;;10.27;8.43;;;;;;;;;;5011901;28;20029;-75
2022/12/07 03:41:59;;;;;;;14.60;7.30;;;;;;;;;;5020746;28;20112;-75
2022/12/07 03:44:26;;;;;;;11.73;7.35;;;;;;;;;;5018232;28;20789;-75
2022/12/07 03:46:55;;;;;;;12.65;7.63;;;;;;;;;;5020660;28;20026;-75
2022/12/07 03:49:27;;;;;;;11.45;7.25;;;;;;;;;;5009529;28;20116;-75
2022/12/07 03:52:01;;;;;;;11.35;7.00;;;;;;;;;;5026357;28;20083;-75
2022/12/07 03:54:30;;;;;;;11.82;7.43;;;;;;;;;;5028249;28;20504;-75
2022/12/07 03:56:58;;;;;;;10.75;7.45;;;;;;;;;;5023706;28;20025;-75
2022/12/07 03:59:25;;;;;;;11.65;7.45;;;;;;;;;;5025836;28;20103;-75
2022/12/07 04:01:56;;;;;;;13.43;7.90;;;;;;;;;;5017358;28;20032;-75
2022/12/07 04:04:22;;;;;;;14.63;8.38;;;;;;;;;;5019160;28;20059;-75
2022/12/07 04:06:48;;;;;;;11.57;7.93;;;;;;;;;;5029797;28;20033;-75
2022/12/07 04:09:15;;;;;;;15.85;8.18;;;;;;;;;;5026494;28;20375;-75
2022/12/07 04:11:41;;;;;;;16.02;8.05;;;;;;;;;;5020865;28;20029;-75
2022/12/07 04:14:19;;;;;;;11.32;8.27;;;;;;;;;;5010390;28;20030;-75
2022/12/07 04:16:49;;;;;;;12.15;8.75;;;;;;;;;;5020635;28;20537;-75
2022/12/07 04:19:16;;;;;;;12.63;8.32;;;;;;;;;;5020499;28;20022;-75
2022/12/07 04:21:42;;;;;;;15.25;8.40;;;;;;;;;;5021643;28;20120;-75
2022/12/07 04:24:09;;;;;;;13.55;8.07;;;;;;;;;;5042242;28;20025;-75
2022/12/07 04:26:35;;;;;;;13.75;7.57;;;;;;;;;;5026736;28;20029;-75
2022/12/07 04:29:01;;;;;;;13.18;8.40;;;;;;;;;;5024968;28;20022;-75
2022/12/07 04:31:27;;;;;;;12.20;7.45;;;;;;;;;;5025531;28;20492;-75
2022/12/07 04:33:53;;;;;;;13.82;8.30;;;;;;;;;;5009961;28;20021;-75
2022/12/07 04:36:20;;;;;;;13.60;8.20;;;;;;;;;;5007102;28;20036;-74
2022/12/07 04:38:46;;;;;;;11.95;7.85;;;;;;;;;;5026245;28;20493;-75
2022/12/07 04:41:13;;;;;;;13.82;8.27;;;;;;;;;;4996207;28;20087;-75
2022/12/07 04:43:39;;;;;;;16.92;7.63;;;;;;;;;;5025865;28;20040;-75
2022/12/07 04:46:05;;;;;;;11.20;8.13;;;;;;;;;;5029948;28;20028;-75
2022/12/07 04:48:31;;;;;;;12.85;9.15;;;;;;;;;;5027273;28;20497;-75
2022/12/07 04:50:57;;;;;;;11.43;8.23;;;;;;;;;;5025271;28;20029;-75
2022/12/07 04:53:24;;;;;;;17.00;9.13;;;;;;;;;;5012317;28;20025;-75
2022/12/07 04:55:50;;;;;;;15.23;8.63;;;;;;;;;;5007278;28;20060;-75
2022/12/07 04:58:16;;;;;;;12.85;9.05;;;;;;;;;;5033072;28;20049;-75
2022/12/07 05:00:42;;;;;;;11.50;7.68;;;;;;;;;;5024007;28;20025;-75
2022/12/07 05:03:08;;;;;;;19.15;8.82;;;;;;;;;;5028881;28;20474;-75
2022/12/07 05:05:34;;;;;;;12.70;8.45;;;;;;;;;;5018071;28;20036;-75
2022/12/07 05:08:00;;;;;;;17.65;9.40;;;;;;;;;;5014209;28;20033;-75
2022/12/07 05:10:26;;;;;;;11.98;8.00;;;;;;;;;;5026005;28;20394;-75
2022/12/07 05:12:52;;;;;;;14.27;8.35;;;;;;;;;;5032898;28;20037;-75
2022/12/07 05:15:18;;;;;;;14.52;8.10;;;;;;;;;;5028051;28;20033;-75
2022/12/07 05:17:44;;;;;;;11.10;7.75;;;;;;;;;;5027473;28;20025;-75
2022/12/07 05:20:11;;;;;;;10.40;8.13;;;;;;;;;;5001562;28;20136;-75
2022/12/07 05:22:37;;;;;;;11.30;7.70;;;;;;;;;;5027034;28;20443;-75
2022/12/07 05:25:03;;;;;;;11.27;7.10;;;;;;;;;;5025645;28;20112;-75
2022/12/07 05:27:29;;;;;;;12.07;7.10;;;;;;;;;;5025393;28;20480;-75
2022/12/07 05:29:55;;;;;;;9.85;7.05;;;;;;;;;;5026755;28;20033;-75
2022/12/07 05:32:21;;;;;;;9.85;6.93;;;;;;;;;;5024263;28;20032;-75
2022/12/07 05:34:47;;;;;;;9.93;6.78;;;;;;;;;;5032162;28;20588;-75
2022/12/07 05:37:13;;;;;;;13.85;7.72;;;;;;;;;;5005648;28;20029;-75
2022/12/07 05:39:42;;;;;;;12.93;7.30;;;;;;;;;;5023924;28;20032;-75
2022/12/07 05:42:12;;;;;;;10.98;7.55;;;;;;;;;;5028962;28;20113;-75
2022/12/07 05:44:38;;;;;;;11.52;7.40;;;;;;;;;;5032603;28;20025;-76
2022/12/07 05:47:04;;;;;;;11.55;7.53;;;;;;;;;;5029072;28;20446;-75
2022/12/07 05:49:30;;;;;;;12.90;7.32;;;;;;;;;;5012158;28;20112;-74
2022/12/07 05:51:57;;;;;;;12.70;6.85;;;;;;;;;;5026799;28;20029;-74
2022/12/07 05:54:23;;;;;;;11.82;6.70;;;;;;;;;;5032152;28;20025;-75
2022/12/07 05:56:49;;;;;;;8.80;7.38;;;;;;;;;;5024969;28;20057;-75
2022/12/07 05:59:22;;;;;;;11.73;7.32;;;;;;;;;;5020518;28;20079;-75
2022/12/07 06:01:48;;;;;;;11.23;6.75;;;;;;;;;;5027622;28;20041;-76
2022/12/07 06:04:14;;;;;;;8.63;6.22;;;;;;;;;;5022945;28;20430;-75
2022/12/07 06:06:40;;;;;;;9.35;6.75;;;;;;;;;;5033020;28;20048;-75
2022/12/07 06:09:07;;;;;;;7.20;5.90;;;;;;;;;;5017547;28;20030;-74
2022/12/07 06:14:17;;;;;;;10.05;6.63;;;;;;;;;;5028129;28;20045;-75
2022/12/07 06:16:43;;;;;;;10.98;6.28;;;;;;;;;;5024941;28;20041;-75
2022/12/07 06:19:09;;;;;;;11.70;6.15;;;;;;;;;;5010057;28;20037;-75
2022/12/07 06:21:36;;;;;;;7.88;5.90;;;;;;;;;;5008418;28;20044;-75
2022/12/07 06:24:02;;;;;;;14.40;6.75;;;;;;;;;;5032527;28;20032;-75
2022/12/07 06:26:28;;;;;;;11.80;6.63;;;;;;;;;;5014695;28;20590;-75
2022/12/07 06:28:54;;;;;;;10.00;6.40;;;;;;;;;;5006201;28;20033;-75
2022/12/07 06:31:20;;;;;;;10.27;5.88;;;;;;;;;;5019973;28;20044;-74
2022/12/07 06:33:46;;;;;;;9.18;7.05;;;;;;;;;;5005665;28;20033;-74
2022/12/07 06:36:12;;;;;;;7.57;5.30;;;;;;;;;;5003612;28;20079;-75
2022/12/07 06:38:38;;;;;;;11.18;5.90;;;;;;;;;;5025778;28;20459;-74
2022/12/07 06:41:05;;;;;;;10.43;7.35;;;;;;;;;;5006381;28;20120;-75
2022/12/07 06:43:31;;;;;;;10.35;8.10;;;;;;;;;;5005474;28;20037;-75
2022/12/07 06:45:57;;;;;;;11.05;7.22;;;;;;;;;;5016455;28;20021;-75
2022/12/07 06:48:23;;;;;;;12.43;7.13;;;;;;;;;;5016969;28;20120;-75
2022/12/07 06:50:49;;;;;;;10.65;7.70;;;;;;;;;;5017655;28;20105;-75
2022/12/07 06:53:15;;;;;;;10.75;7.22;;;;;;;;;;5019627;28;20378;-75
2022/12/07 06:55:41;;;;;;;11.07;7.75;;;;;;;;;;5025588;28;20025;-75
2022/12/07 06:58:08;;;;;;;13.63;7.82;;;;;;;;;;5004993;28;20045;-74
2022/12/07 07:00:35;;;;;;;15.00;7.40;;;;;;;;;;5019545;28;20549;-74
2022/12/07 07:03:01;;;;;;;11.32;8.02;;;;;;;;;;5025314;28;20021;-74
2022/12/07 07:05:27;;;;;;;11.07;6.72;;;;;;;;;;5021872;28;20041;-75
2022/12/07 07:07:53;;;;;;;9.77;7.07;;;;;;;;;;5019714;28;20554;-74
2022/12/07 07:10:19;;;;;;;10.40;6.20;;;;;;;;;;5013697;28;20364;-75
2022/12/07 07:12:45;;;;;;;8.27;5.25;;;;;;;;;;5018883;28;20041;-74
2022/12/07 07:15:11;;;;;;;7.93;4.78;;;;;;;;;;5016068;28;20025;-75
2022/12/07 07:17:38;;;;;;;7.07;4.70;;;;;;;;;;5027663;28;20040;-74
2022/12/07 07:20:04;;;;;;;9.73;3.75;;;;;;;;;;5025601;28;20141;-74
2022/12/07 07:22:31;;;;;;;6.00;4.63;;;;;;;;;;5022246;28;20096;-74
2022/12/07 07:24:57;;;;;;;6.22;4.20;;;;;;;;;;5025075;28;20386;-75
2022/12/07 07:27:23;;;;;;;9.30;3.97;;;;;;;;;;5023019;28;20049;-75
2022/12/07 07:29:49;;;;;;;8.63;4.93;;;;;;;;;;5024697;28;20060;-74
2022/12/07 07:32:15;;;;;;;7.75;5.03;;;;;;;;;;5029319;28;20029;-74
2022/12/07 07:34:41;;;;;;;6.22;4.35;;;;;;;;;;5028148;28;20100;-74
2022/12/07 07:37:07;;;;;;;7.63;5.10;;;;;;;;;;5018341;28;20109;-74
2022/12/07 07:39:33;;;;;;;6.55;4.80;;;;;;;;;;5004829;28;21476;-74
2022/12/07 07:41:59;;;;;;;7.75;5.55;;;;;;;;;;5017797;28;20029;-75
2022/12/07 07:44:25;;;;;;;12.52;8.45;;;;;;;;;;5026338;28;20033;-75
2022/12/07 07:46:52;;;;;;;13.50;7.95;;;;;;;;;;5030604;28;20474;-75
2022/12/07 07:49:18;;;;;;;12.98;6.05;;;;;;;;;;5018788;28;20025;-75
2022/12/07 07:51:44;;;;;;;10.65;5.75;;;;;;;;;;5024935;28;20100;-75
2022/12/07 07:54:10;;;;;;;15.40;8.23;;;;;;;;;;5019291;28;20577;-74
2022/12/07 07:56:36;;;;;;;9.52;6.65;;;;;;;;;;5020801;28;20124;-75
2022/12/07 07:59:02;;;;;;;13.63;6.28;;;;;;;;;;5025399;28;20049;-75
2022/12/07 08:01:29;;;;;;;9.93;6.22;;;;;;;;;;5009110;28;20556;-74
2022/12/07 08:03:55;;;;;;;15.40;7.28;;;;;;;;;;5029049;28;20026;-74
2022/12/07 08:06:21;;;;;;;10.40;6.15;;;;;;;;;;5020285;28;20159;-74
2022/12/07 08:08:47;;;;;;;13.18;6.82;;;;;;;;;;5006181;28;20047;-75
2022/12/07 08:11:13;;;;;;;15.70;7.50;;;;;;;;;;5020283;28;20075;-74
2022/12/07 08:13:39;;;;;;;11.52;7.43;;;;;;;;;;5026658;28;20025;-75
2022/12/07 08:16:06;;;;;;;13.82;8.80;;;;;;;;;;5022065;28;20098;-75
2022/12/07 08:18:36;;;;;;;21.42;12.35;;;;;;;;;;5017354;28;20102;-75
2022/12/07 08:21:02;;;;;;;19.75;11.75;;;;;;;;;;5024720;28;20021;-75
2022/12/07 08:23:29;;;;;;;13.63;10.10;;;;;;;;;;5019863;28;20044;-74
2022/12/07 08:25:55;;;;;;;17.58;10.50;;;;;;;;;;5021801;28;20478;-77
2022/12/07 08:28:21;;;;;;;20.00;12.75;;;;;;;;;;5023250;28;20378;-77
2022/12/07 08:30:47;;;;;;;18.92;11.73;;;;;;;;;;5025333;28;20097;-76
2022/12/07 08:33:13;;;;;;;18.58;10.40;;;;;;;;;;5000444;28;20430;-77
2022/12/07 08:35:39;;;;;;;15.90;8.27;;;;;;;;;;5020776;28;20029;-74
2022/12/07 08:38:05;;;;;;;11.15;7.18;;;;;;;;;;5031118;28;20409;-77
2022/12/07 08:40:31;;;;;;;11.90;6.70;;;;;;;;;;5022237;28;20035;-76
2022/12/07 08:42:57;;;;;;;10.10;6.05;;;;;;;;;;5020515;28;20026;-76
2022/12/07 08:45:24;;;;;;;8.23;5.22;;;;;;;;;;5020360;28;20041;-76
2022/12/07 08:47:55;;;;;;;11.75;5.97;;;;;;;;;;4995632;28;20426;-77
2022/12/07 08:50:22;;;;;;;7.15;5.18;;;;;;;;;;5008238;28;20025;-76
2022/12/07 08:52:52;;;;;;;9.65;5.35;;;;;;;;;;5001877;28;20065;-76
2022/12/07 08:55:19;;;;;;;9.40;4.93;;;;;;;;;;5023211;28;20026;-76
2022/12/07 08:57:45;;;;;;;10.38;5.35;;;;;;;;;;5025849;28;20069;-78
2022/12/07 09:00:12;;;;;;;15.70;5.60;;;;;;;;;;5022356;28;20537;-78
2022/12/07 09:02:38;;;;;;;8.80;5.70;;;;;;;;;;5028760;28;20036;-76
2022/12/07 09:05:04;;;;;;;9.65;5.93;;;;;;;;;;5020400;28;20471;-76
2022/12/07 09:07:31;;;;;;;7.38;5.28;;;;;;;;;;5022416;28;20091;-75
2022/12/07 09:09:57;;;;;;;6.97;4.78;;;;;;;;;;5022243;28;20463;-76
2022/12/07 09:12:23;;;;;;;8.77;4.95;;;;;;;;;;5023406;28;20028;-76
2022/12/07 09:14:50;;;;;;;6.32;5.63;;;;;;;;;;5022634;28;20084;-76
2022/12/07 09:17:16;;;;;;;10.98;6.18;;;;;;;;;;5020886;28;20478;-76
2022/12/07 09:19:42;;;;;;;9.30;5.28;;;;;;;;;;5025089;28;20051;-77
2022/12/07 09:22:08;;;;;;;7.10;4.97;;;;;;;;;;5011515;28;20017;-77
2022/12/07 09:24:34;;;;;;;9.35;5.05;;;;;;;;;;5023154;28;20364;-76
2022/12/07 09:27:00;;;;;;;11.70;5.20;;;;;;;;;;5023416;28;20026;-76
2022/12/07 09:29:26;;;;;;;8.95;5.45;;;;;;;;;;5024007;28;20125;-76
2022/12/07 09:31:53;;;;;;;6.28;5.05;;;;;;;;;;5023760;28;20049;-77
2022/12/07 09:34:20;;;;;;;6.05;4.55;;;;;;;;;;5012367;28;20029;-77
2022/12/07 09:36:46;;;;;;;6.38;4.35;;;;;;;;;;4997812;28;20356;-76
2022/12/07 09:39:12;;;;;;;7.30;4.88;;;;;;;;;;5006879;28;20041;-75
2022/12/07 09:41:43;;;;;;;6.57;4.80;;;;;;;;;;5024802;28;20043;-76
2022/12/07 09:44:14;;;;;;;5.72;5.10;;;;;;;;;;5022273;28;20029;-76
2022/12/07 09:46:41;;;;;;;6.40;4.45;;;;;;;;;;5025579;28;20432;-77
2022/12/07 09:49:12;;;;;;;6.55;4.60;;;;;;;;;;5016478;28;20040;-76
2022/12/07 09:51:38;;;;;;;13.07;4.10;;;;;;;;;;5025938;28;20059;-77
2022/12/07 09:54:05;;;;;;;8.95;4.32;;;;;;;;;;5027259;28;20367;-76
2022/12/07 09:56:31;;;;;;;7.93;4.45;;;;;;;;;;5031609;28;20045;-75
2022/12/07 09:59:01;;;;;;;6.30;4.15;;;;;;;;;;5026471;28;20129;-76
2022/12/07 10:01:34;;;;;;;5.43;4.57;;;;;;;;;;5029584;28;20037;-76
2022/12/07 10:04:16;;;;;;;6.05;3.97;;;;;;;;;;5012866;28;20033;-75
2022/12/07 10:06:42;;;;;;;6.75;3.85;;;;;;;;;;5020707;28;20087;-75
2022/12/07 10:09:19;;;;;;;9.23;5.63;;;;;;;;;;5019619;28;20501;-78
2022/12/07 10:12:01;;;;;;;5.60;4.35;;;;;;;;;;5020714;28;20030;-75
2022/12/07 10:14:29;;;;;;;7.88;4.43;;;;;;;;;;5022573;28;20084;-76
2022/12/07 10:16:55;;;;;;;5.45;3.80;;;;;;;;;;5028336;28;20425;-75
2022/12/07 10:19:30;;;;;;;5.75;3.85;;;;;;;;;;5025377;28;20109;-76
2022/12/07 10:22:10;;;;;;;5.93;4.03;;;;;;;;;;5017342;28;20018;-76
2022/12/07 10:24:39;;;;;;;8.85;4.20;;;;;;;;;;5027685;28;20041;-75
2022/12/07 10:27:05;;;;;;;7.13;5.07;;;;;;;;;;5023632;28;20053;-75
2022/12/07 10:29:33;;;;;;;9.05;4.85;;;;;;;;;;5028173;28;20034;-76
2022/12/07 10:32:20;;;;;;;8.63;4.57;;;;;;;;;;5005064;28;20034;-76
2022/12/07 10:34:46;;;;;;;8.82;4.88;;;;;;;;;;5019142;28;20060;-76
2022/12/07 10:37:18;;;;;;;8.27;4.20;;;;;;;;;;5023897;28;20029;-77
2022/12/07 10:39:47;;;;;;;8.50;4.68;;;;;;;;;;5011337;28;20235;-76
2022/12/07 10:42:20;;;;;;;6.45;4.53;;;;;;;;;;5005838;28;20029;-77
2022/12/07 10:44:47;;;;;;;11.35;5.60;;;;;;;;;;5018047;28;20492;-77
2022/12/07 10:47:19;;;;;;;5.80;4.35;;;;;;;;;;5014125;28;20051;-77
2022/12/07 10:50:04;;;;;;;4.70;3.90;;;;;;;;;;5022821;28;20029;-76
2022/12/07 10:52:49;;;;;;;6.32;3.85;;;;;;;;;;5018702;28;20030;-77
2022/12/07 10:55:35;;;;;;;5.93;4.45;;;;;;;;;;5022605;28;20022;-76
2022/12/07 10:58:17;;;;;;;7.30;4.07;;;;;;;;;;5006807;28;20045;-76
2022/12/07 11:00:57;;;;;;;6.55;4.32;;;;;;;;;;5021603;28;20036;-77
2022/12/07 11:03:28;;;;;;;12.75;8.10;;;;;;;;;;5025746;28;20063;-76
2022/12/07 11:06:13;;;;;;;8.45;6.50;;;;;;;;;;5017580;28;20033;-79
2022/12/07 11:08:53;;;;;;;6.82;4.53;;;;;;;;;;5018983;28;20037;-76
2022/12/07 11:11:25;;;;;;;7.30;4.72;;;;;;;;;;5023127;28;20025;-77
2022/12/07 11:14:03;;;;;;;7.85;4.22;;;;;;;;;;5008604;28;20030;-77
2022/12/07 11:16:49;;;;;;;8.63;4.30;;;;;;;;;;5020977;28;20025;-78
2022/12/07 11:19:24;;;;;;;5.63;4.18;;;;;;;;;;5022595;28;20022;-77
2022/12/07 11:21:53;;;;;;;5.70;3.97;;;;;;;;;;5002480;28;20497;-77
2022/12/07 11:24:24;;;;;;;8.57;4.38;;;;;;;;;;5015681;28;20117;-77
2022/12/07 11:27:09;;;;;;;6.57;4.40;;;;;;;;;;5022599;28;20291;-77
2022/12/07 11:29:45;;;;;;;5.72;4.00;;;;;;;;;;5025339;28;20037;-75
2022/12/07 11:32:14;;;;;;;7.22;3.95;;;;;;;;;;5027474;28;20029;-78
2022/12/07 11:34:49;;;;;;;8.00;4.65;;;;;;;;;;5023188;28;20120;-77
2022/12/07 11:37:18;;;;;;;5.60;3.90;;;;;;;;;;5019634;28;20029;-77
2022/12/07 11:39:56;;;;;;;8.52;3.65;;;;;;;;;;5023989;28;20041;-78
2022/12/07 11:42:25;;;;;;;8.23;5.95;;;;;;;;;;5020744;28;20033;-78
2022/12/07 11:44:54;;;;;;;12.68;8.70;;;;;;;;;;5022920;28;20084;-79
2022/12/07 11:47:31;;;;;;;8.40;5.82;;;;;;;;;;5027432;28;20120;-77
2022/12/07 11:49:57;;;;;;;8.00;5.20;;;;;;;;;;5019802;28;20159;-78
2022/12/07 11:52:42;;;;;;;6.25;3.78;;;;;;;;;;5022029;28;20403;-77
2022/12/07 11:55:16;;;;;;;8.23;4.50;;;;;;;;;;5024298;28;20045;-77
2022/12/07 11:57:45;;;;;;;6.07;4.55;;;;;;;;;;5025597;28;20053;-79
2022/12/07 12:00:18;;;;;;;7.13;3.10;;;;;;;;;;5023246;28;20096;-76
2022/12/07 12:03:04;;;;;;;5.38;3.05;;;;;;;;;;5021349;28;20702;-75
2022/12/07 12:05:30;;;;;;;6.13;3.45;;;;;;;;;;5019881;28;20029;-75
2022/12/07 12:08:22;;;;;;;5.25;3.00;;;;;;;;;;4996722;28;20026;-77
2022/12/07 12:10:58;;;;;;;4.05;3.20;;;;;;;;;;5005483;28;20049;-76
2022/12/07 12:13:30;;;;;;;5.93;4.45;;;;;;;;;;5012366;28;20022;-76
2022/12/07 12:15:56;;;;;;;4.57;3.55;;;;;;;;;;5018362;28;20021;-75
2022/12/07 12:18:29;;;;;;;6.30;3.50;;;;;;;;;;5004867;28;20057;-76
2022/12/07 12:21:01;;;;;;;6.25;3.67;;;;;;;;;;5007282;28;20048;-77
2022/12/07 12:23:54;;;;;;;6.18;3.40;;;;;;;;;;5007531;28;20036;-76
2022/12/07 12:26:24;;;;;;;7.88;3.60;;;;;;;;;;5022782;28;20077;-77
2022/12/07 12:28:58;;;;;;;7.10;3.35;;;;;;;;;;5025993;28;20029;-82
2022/12/07 12:31:24;;;;;;;4.38;3.15;;;;;;;;;;5022855;28;20022;-75
2022/12/07 12:33:57;;;;;;;7.00;3.47;;;;;;;;;;5022479;28;20623;-76
2022/12/07 12:36:25;;;;;;;4.85;3.15;;;;;;;;;;5019050;28;20018;-76
2022/12/07 12:39:10;;;;;;;5.57;3.85;;;;;;;;;;5020895;28;20029;-76
2022/12/07 12:44:14;;;;;;;6.22;3.45;;;;;;;;;;5018584;28;20391;-77
2022/12/07 12:46:51;;;;;;;6.22;3.95;;;;;;;;;;5021329;28;20100;-76
2022/12/07 12:49:17;;;;;;;8.15;4.95;;;;;;;;;;5017037;28;20030;-78
2022/12/07 12:51:44;;;;;;;6.28;3.55;;;;;;;;;;5016776;28;20045;-77
2022/12/07 12:54:20;;;;;;;7.20;3.83;;;;;;;;;;5026193;28;20025;-76
2022/12/07 12:57:25;;;;;;;7.88;4.20;;;;;;;;;;5027323;28;20030;-87
2022/12/07 12:59:51;;;;;;;4.32;3.15;;;;;;;;;;4928302;29;20035;-76
2022/12/07 13:02:23;;;;;;;4.47;3.00;;;;;;;;;;4945956;28;20472;-79
2022/12/07 13:04:58;;;;;;;4.20;2.60;;;;;;;;;;4969355;28;20044;-79
2022/12/07 13:07:43;;;;;;;6.63;2.90;;;;;;;;;;5023934;28;20029;-82
2022/12/07 13:10:22;;;;;;;5.90;2.97;;;;;;;;;;5022701;28;20485;-82
2022/12/07 13:12:57;;;;;;;4.05;2.70;;;;;;;;;;5023921;28;20052;-86
2022/12/07 13:15:40;;;;;;;4.80;2.67;;;;;;;;;;5027103;28;20398;-79
2022/12/07 13:18:25;;;;;;;2.92;2.55;;;;;;;;;;5010132;28;20131;-78
2022/12/07 13:20:53;;;;;;;3.70;2.47;;;;;;;;;;5031207;28;20068;-78
2022/12/07 13:23:21;;;;;;;4.20;2.50;;;;;;;;;;5026786;28;20025;-79
2022/12/07 13:26:07;;;;;;;3.25;2.50;;;;;;;;;;5017975;28;20553;-78
2022/12/07 13:28:40;;;;;;;6.03;3.25;;;;;;;;;;4986283;28;20553;-79
2022/12/07 13:31:26;;;;;;;6.75;4.88;;;;;;;;;;5027588;28;20032;-78
2022/12/07 13:33:52;;;;;;;5.32;3.60;;;;;;;;;;5021203;28;20935;-80
2022/12/07 13:36:26;;;;;;;6.22;3.08;;;;;;;;;;5023083;28;20018;-79
2022/12/07 13:38:57;;;;;;;6.07;2.70;;;;;;;;;;5022309;28;20044;-78
2022/12/07 13:41:25;;;;;;;3.25;2.42;;;;;;;;;;5021494;28;20124;-78
2022/12/07 13:44:00;;;;;;;3.33;2.50;;;;;;;;;;5025350;28;20091;-78
2022/12/07 13:46:31;;;;;;;3.67;2.60;;;;;;;;;;5013678;28;20125;-78
2022/12/07 13:48:57;;;;;;;5.28;2.67;;;;;;;;;;5027298;28;20029;-77
2022/12/07 13:51:25;;;;;;;6.53;2.47;;;;;;;;;;5018463;28;20104;-77
2022/12/07 13:53:53;;;;;;;5.30;2.78;;;;;;;;;;5029790;28;20034;-76
2022/12/07 13:56:21;;;;;;;4.38;2.70;;;;;;;;;;5022045;28;20052;-77
2022/12/07 13:58:48;;;;;;;3.08;2.60;;;;;;;;;;5030513;28;20050;-78
2022/12/07 14:01:14;;;;;;;3.47;2.70;;;;;;;;;;5033065;28;20087;-78
2022/12/07 14:03:41;;;;;;;6.63;2.97;;;;;;;;;;5028453;28;20096;-78
2022/12/07 14:06:10;;;;;;;3.97;3.28;;;;;;;;;;5000654;28;20437;-77
2022/12/07 14:08:36;;;;;;;4.07;3.28;;;;;;;;;;5018952;28;20037;-77
2022/12/07 14:11:02;;;;;;;5.00;3.05;;;;;;;;;;5023918;28;20831;-78
2022/12/07 14:13:34;;;;;;;5.03;2.70;;;;;;;;;;5031591;28;20029;-78
2022/12/07 14:16:02;;;;;;;4.35;3.30;;;;;;;;;;5021215;28;20052;-80
2022/12/07 14:18:29;;;;;;;4.30;3.25;;;;;;;;;;5023946;28;20052;-77
2022/12/07 14:21:10;;;;;;;6.60;3.00;;;;;;;;;;5030466;28;20100;-79
2022/12/07 14:23:37;;;;;;;4.28;2.80;;;;;;;;;;5008610;28;20033;-79
2022/12/07 14:26:19;;;;;;;6.22;2.80;;;;;;;;;;5034456;28;20069;-78
2022/12/07 14:28:45;;;;;;;7.28;3.15;;;;;;;;;;5031678;28;20030;-78
2022/12/07 14:31:16;;;;;;;4.05;2.95;;;;;;;;;;5008685;28;20039;-78
2022/12/07 14:33:42;;;;;;;5.35;2.80;;;;;;;;;;5024207;28;20099;-77
2022/12/07 14:36:14;;;;;;;4.75;3.30;;;;;;;;;;5012001;28;20017;-77
2022/12/07 14:38:41;;;;;;;6.47;3.25;;;;;;;;;;5023176;28;20029;-79
2022/12/07 14:44:08;;;;;;;4.82;3.15;;;;;;;;;;5021590;28;20048;-77
2022/12/07 14:46:34;;;;;;;4.82;3.38;;;;;;;;;;5016337;28;20029;-77
2022/12/07 14:49:00;;;;;;;7.53;3.30;;;;;;;;;;5027450;28;20873;-77
2022/12/07 14:51:26;;;;;;;4.28;2.40;;;;;;;;;;5031991;28;20033;-77
2022/12/07 14:53:53;;;;;;;4.72;3.17;;;;;;;;;;5010440;28;20036;-77
2022/12/07 14:56:19;;;;;;;4.80;2.88;;;;;;;;;;5031989;28;20036;-77
2022/12/07 14:58:47;;;;;;;8.30;2.47;;;;;;;;;;5025969;28;20053;-79